createdAt,value
2022-11-24T00:00:51.858Z,10.60
2022-11-24T00:03:58.034Z,12.13
2022-11-24T00:07:00.757Z,11.27
2022-11-24T00:10:04.353Z,11.18
2022-11-24T00:13:06.930Z,10.97
2022-11-24T00:16:18.697Z,10.82
2022-11-24T00:19:21.591Z,9.38
2022-11-24T00:22:24.749Z,10.80
2022-11-24T00:25:27.325Z,16.08
2022-11-24T00:28:30.343Z,13.07
2022-11-24T00:31:35.355Z,12.10
2022-11-24T00:34:38.649Z,9.82
2022-11-24T00:37:41.271Z,13.40
2022-11-24T00:40:45.570Z,9.70
2022-11-24T00:43:48.446Z,11.97
2022-11-24T00:46:51.402Z,11.75
2022-11-24T00:49:54.179Z,9.80
2022-11-24T00:52:56.969Z,14.60
2022-11-24T00:55:59.552Z,11.52
2022-11-24T00:59:02.454Z,14.60
2022-11-24T01:02:05.070Z,11.70
2022-11-24T01:05:08.630Z,10.73
2022-11-24T01:08:11.947Z,13.98
2022-11-24T01:11:23.547Z,15.23
2022-11-24T01:14:26.411Z,14.83
2022-11-24T01:17:29.472Z,14.02
2022-11-24T01:20:32.596Z,15.35
2022-11-24T01:23:35.849Z,15.25
2022-11-24T01:26:38.917Z,16.62
2022-11-24T01:29:41.761Z,17.67
2022-11-24T01:32:44.354Z,21.37
2022-11-24T01:35:47.222Z,23.08
2022-11-24T01:38:50.332Z,20.33
2022-11-24T01:41:53.529Z,18.30
2022-11-24T01:45:31.688Z,17.53
2022-11-24T01:48:40.704Z,19.05
2022-11-24T01:51:47.623Z,19.23
2022-11-24T01:54:55.120Z,21.95
2022-11-24T01:58:07.282Z,19.67
2022-11-24T02:01:10.243Z,17.30
2022-11-24T02:04:15.801Z,22.25
2022-11-24T02:07:18.990Z,19.70
2022-11-24T02:10:22.005Z,19.55
2022-11-24T02:13:25.133Z,23.58
2022-11-24T02:16:27.713Z,22.10
2022-11-24T02:19:39.619Z,23.90
2022-11-24T02:23:09.773Z,21.55
2022-11-24T02:26:16.070Z,21.42
2022-11-24T02:29:20.509Z,23.60
2022-11-24T02:32:23.421Z,18.40
2022-11-24T02:35:27.338Z,21.85
2022-11-24T02:38:31.990Z,22.92
2022-11-24T02:41:34.709Z,20.33
2022-11-24T02:44:41.076Z,19.17
2022-11-24T02:47:43.697Z,19.87
2022-11-24T02:50:46.649Z,24.40
2022-11-24T02:53:49.441Z,22.67
2022-11-24T02:56:52.540Z,17.48
2022-11-24T02:59:55.053Z,20.98
2022-11-24T03:02:58.242Z,20.83
2022-11-24T03:06:01.193Z,18.48
2022-11-24T03:09:04.341Z,18.35
2022-11-24T03:12:07.129Z,19.55
2022-11-24T03:15:10.682Z,17.73
2022-11-24T03:18:13.234Z,20.73
2022-11-24T03:21:16.294Z,21.62
2022-11-24T03:24:18.849Z,18.80
2022-11-24T03:27:21.759Z,21.48
2022-11-24T03:30:24.279Z,19.55
2022-11-24T03:33:27.135Z,21.80
2022-11-24T03:36:29.680Z,19.80
2022-11-24T03:39:32.624Z,23.98
2022-11-24T03:42:35.248Z,23.40
2022-11-24T03:45:46.153Z,22.35
2022-11-24T03:48:49.290Z,28.70
2022-11-24T03:51:52.033Z,29.20
2022-11-24T03:54:54.615Z,26.95
2022-11-24T03:57:57.544Z,27.15
2022-11-24T04:01:00.095Z,25.17
2022-11-24T04:04:03.281Z,27.63
2022-11-24T04:07:05.847Z,28.25
2022-11-24T04:10:09.084Z,26.52
2022-11-24T04:13:14.427Z,29.90
2022-11-24T04:16:17.393Z,34.25
2022-11-24T04:19:19.973Z,38.53
2022-11-24T04:22:23.101Z,32.78
2022-11-24T04:25:25.631Z,31.48
2022-11-24T04:28:28.939Z,40.70
2022-11-24T04:31:31.858Z,34.08
2022-11-24T04:34:35.847Z,39.53
2022-11-24T04:37:38.705Z,37.20
2022-11-24T04:40:41.612Z,40.67
2022-11-24T04:43:44.404Z,37.40
2022-11-24T04:46:47.461Z,38.33
2022-11-24T04:49:50.520Z,41.83
2022-11-24T04:52:53.358Z,42.05
2022-11-24T04:55:55.876Z,41.00
2022-11-24T04:59:01.620Z,47.22
2022-11-24T05:02:09.165Z,38.92
2022-11-24T05:05:12.109Z,40.77
2022-11-24T05:08:14.705Z,45.35
2022-11-24T05:11:18.116Z,40.38
2022-11-24T05:14:20.656Z,44.50
2022-11-24T05:17:23.542Z,41.35
2022-11-24T05:20:26.314Z,48.33
2022-11-24T05:23:29.308Z,45.95
2022-11-24T05:26:31.793Z,45.42
2022-11-24T05:29:34.645Z,50.70
2022-11-24T05:32:37.224Z,52.42
2022-11-24T05:35:40.470Z,48.20
2022-11-24T05:38:43.211Z,43.87
2022-11-24T05:41:46.404Z,47.55
2022-11-24T05:44:48.936Z,47.08
2022-11-24T05:47:51.788Z,52.10
2022-11-24T05:50:55.809Z,48.43
2022-11-24T05:53:58.903Z,47.95
2022-11-24T05:57:01.407Z,48.65
2022-11-24T06:00:06.937Z,52.03
2022-11-24T06:03:14.783Z,50.63
2022-11-24T06:06:17.755Z,55.93
2022-11-24T06:09:20.418Z,58.00
2022-11-24T06:12:23.342Z,53.15
2022-11-24T06:15:25.979Z,51.95
2022-11-24T06:18:28.714Z,48.30
2022-11-24T06:21:31.900Z,52.80
2022-11-24T06:24:35.000Z,51.30
2022-11-24T06:27:37.787Z,53.50
2022-11-24T06:30:40.783Z,49.13
2022-11-24T06:33:43.444Z,49.45
2022-11-24T06:36:47.035Z,46.63
2022-11-24T06:39:49.633Z,51.63
2022-11-24T06:42:52.722Z,49.70
2022-11-24T06:45:55.978Z,54.67
2022-11-24T06:49:00.020Z,52.55
2022-11-24T06:52:02.747Z,51.67
2022-11-24T06:55:06.264Z,43.10
2022-11-24T06:58:09.077Z,54.05
2022-11-24T07:01:16.978Z,46.45
2022-11-24T07:04:20.132Z,48.72
2022-11-24T07:07:23.098Z,43.03
2022-11-24T07:10:25.971Z,45.22
2022-11-24T07:13:28.987Z,44.30
2022-11-24T07:16:32.092Z,41.45
2022-11-24T07:19:35.009Z,45.45
2022-11-24T07:22:37.651Z,37.53
2022-11-24T07:25:40.782Z,45.22
2022-11-24T07:28:43.403Z,39.72
2022-11-24T07:31:46.425Z,40.05
2022-11-24T07:34:49.021Z,40.65
2022-11-24T07:37:57.478Z,41.60
2022-11-24T07:41:04.876Z,35.08
2022-11-24T07:44:07.825Z,34.90
2022-11-24T07:47:10.475Z,41.20
2022-11-24T07:50:13.703Z,39.97
2022-11-24T07:53:16.747Z,40.13
2022-11-24T07:56:19.709Z,38.10
2022-11-24T07:59:22.305Z,39.70
2022-11-24T08:02:25.485Z,40.42
2022-11-24T08:05:28.379Z,40.33
2022-11-24T08:08:33.437Z,34.87
2022-11-24T08:11:36.808Z,41.35
2022-11-24T08:14:39.401Z,37.85
2022-11-24T08:17:42.205Z,37.13
2022-11-24T08:20:44.794Z,36.45
2022-11-24T08:23:47.741Z,39.70
2022-11-24T08:26:50.260Z,30.70
2022-11-24T08:29:53.369Z,30.05
2022-11-24T08:32:56.035Z,27.27
2022-11-24T08:36:10.046Z,31.02
2022-11-24T08:39:12.796Z,28.37
2022-11-24T08:42:16.093Z,31.27
2022-11-24T08:45:21.393Z,31.60
2022-11-24T08:48:25.478Z,33.97
2022-11-24T08:51:29.047Z,29.42
2022-11-24T08:54:32.798Z,32.37
2022-11-24T08:57:35.773Z,34.22
2022-11-24T09:00:40.809Z,26.62
2022-11-24T09:03:49.963Z,34.05
2022-11-24T09:06:53.056Z,30.33
2022-11-24T09:09:55.714Z,34.17
2022-11-24T09:12:58.599Z,34.13
2022-11-24T09:16:06.476Z,33.95
2022-11-24T09:19:10.205Z,31.48
2022-11-24T09:22:12.926Z,33.45
2022-11-24T09:25:15.887Z,30.97
2022-11-24T09:28:18.434Z,34.08
2022-11-24T09:31:24.727Z,32.88
2022-11-24T09:34:27.705Z,30.52
2022-11-24T09:37:33.002Z,28.80
2022-11-24T09:40:35.801Z,33.80
2022-11-24T09:43:40.850Z,35.03
2022-11-24T09:47:02.332Z,31.60
2022-11-24T09:50:14.111Z,32.95
2022-11-24T09:53:32.722Z,34.22
2022-11-24T09:56:38.756Z,35.10
2022-11-24T09:59:42.383Z,41.22
2022-11-24T10:02:48.613Z,36.13
2022-11-24T10:05:52.502Z,39.70
2022-11-24T10:09:32.342Z,39.05
2022-11-24T10:12:53.721Z,41.23
2022-11-24T10:16:41.184Z,33.63
2022-11-24T10:20:14.437Z,38.22
2022-11-24T10:23:42.010Z,39.80
2022-11-24T10:26:52.429Z,36.65
2022-11-24T10:29:55.564Z,41.57
2022-11-24T10:33:01.234Z,39.70
2022-11-24T10:36:08.040Z,37.95
2022-11-24T10:39:20.917Z,46.22
2022-11-24T10:42:33.670Z,39.60
2022-11-24T10:45:37.928Z,42.90
2022-11-24T10:48:57.657Z,37.50
2022-11-24T10:52:12.971Z,41.08
2022-11-24T10:55:15.589Z,42.30
2022-11-24T10:58:31.673Z,36.88
2022-11-24T11:01:38.596Z,40.17
2022-11-24T11:04:41.453Z,36.78
2022-11-24T11:07:44.133Z,41.45
2022-11-24T11:10:49.440Z,36.65
2022-11-24T11:14:06.038Z,36.50
2022-11-24T11:17:33.414Z,42.20
2022-11-24T11:20:36.780Z,39.22
2022-11-24T11:23:40.418Z,39.45
2022-11-24T11:26:43.447Z,33.55
2022-11-24T11:36:56.297Z,39.33
2022-11-24T11:39:59.072Z,41.95
2022-11-24T11:43:26.049Z,42.17
2022-11-24T11:46:30.989Z,45.25
2022-11-24T11:49:35.501Z,42.63
2022-11-24T11:52:44.375Z,36.72
2022-11-24T11:56:03.638Z,35.05
2022-11-24T11:59:26.766Z,38.33
2022-11-24T12:02:29.768Z,40.63
2022-11-24T12:05:51.225Z,39.63
2022-11-24T12:09:20.437Z,37.63
2022-11-24T12:12:29.631Z,41.45
2022-11-24T12:15:46.292Z,38.60
2022-11-24T12:18:59.617Z,39.15
2022-11-24T12:22:02.183Z,40.30
2022-11-24T12:25:23.268Z,37.03
2022-11-24T12:28:50.080Z,37.05
2022-11-24T12:32:31.274Z,35.25
2022-11-24T12:35:43.785Z,31.70
2022-11-24T12:39:06.913Z,32.87
2022-11-24T12:42:31.161Z,32.40
2022-11-24T12:45:46.599Z,34.28
2022-11-24T12:49:15.042Z,35.90
2022-11-24T12:52:25.455Z,31.83
2022-11-24T12:55:29.325Z,32.20
2022-11-24T12:58:51.929Z,29.48
2022-11-24T13:02:15.027Z,33.80
2022-11-24T13:05:37.757Z,32.10
2022-11-24T13:08:41.115Z,29.02
2022-11-24T13:11:51.928Z,26.97
2022-11-24T13:14:54.573Z,33.20
2022-11-24T13:18:08.567Z,30.30
2022-11-24T13:21:51.033Z,27.73
2022-11-24T13:25:21.717Z,26.27
2022-11-24T13:29:06.039Z,34.57
2022-11-24T13:32:16.804Z,28.67
2022-11-24T13:35:19.634Z,28.05
2022-11-24T13:38:43.967Z,28.70
2022-11-24T13:41:49.271Z,26.87
2022-11-24T13:44:54.147Z,29.47
2022-11-24T13:47:56.693Z,29.02
2022-11-24T13:51:01.228Z,24.40
2022-11-24T13:54:04.226Z,29.85
2022-11-24T13:57:35.550Z,27.83
2022-11-24T14:01:05.215Z,25.07
2022-11-24T14:04:30.970Z,30.40
2022-11-24T14:07:36.528Z,25.90
2022-11-24T14:10:41.490Z,28.85
2022-11-24T14:13:45.058Z,35.88
2022-11-24T14:16:47.925Z,32.97
2022-11-24T14:19:57.844Z,27.48
2022-11-24T14:23:00.801Z,28.83
2022-11-24T14:26:03.354Z,33.67
2022-11-24T14:29:11.234Z,32.58
2022-11-24T14:32:16.888Z,33.07
2022-11-24T14:35:22.672Z,33.28
2022-11-24T14:38:25.785Z,28.55
2022-11-24T14:41:28.775Z,27.40
2022-11-24T14:44:34.520Z,25.50
2022-11-24T14:47:45.038Z,26.40
2022-11-24T14:50:47.782Z,29.12
2022-11-24T14:53:54.324Z,27.25
2022-11-24T14:57:04.185Z,26.55
2022-11-24T15:00:17.236Z,27.95
2022-11-24T15:03:19.867Z,34.33
2022-11-24T15:06:22.632Z,30.35
2022-11-24T15:09:30.633Z,25.30
2022-11-24T15:12:41.288Z,29.60
2022-11-24T15:15:49.439Z,31.95
2022-11-24T15:18:58.528Z,26.93
2022-11-24T15:22:01.498Z,28.65
2022-11-24T15:25:31.434Z,26.95
2022-11-24T15:28:33.942Z,29.48
2022-11-24T15:31:37.119Z,27.42
2022-11-24T15:34:39.882Z,25.47
2022-11-24T15:37:42.692Z,25.70
2022-11-24T15:40:47.515Z,31.85
2022-11-24T15:43:50.392Z,31.20
2022-11-24T15:46:55.300Z,31.05
2022-11-24T15:49:58.308Z,29.87
2022-11-24T15:53:01.022Z,33.53
2022-11-24T15:56:06.863Z,33.45
2022-11-24T15:59:19.949Z,35.00
2022-11-24T16:02:24.028Z,32.58
2022-11-24T16:05:26.894Z,31.17
2022-11-24T16:08:29.576Z,27.25
2022-11-24T16:11:32.413Z,33.83
2022-11-24T16:14:35.868Z,33.47
2022-11-24T16:17:39.143Z,30.80
2022-11-24T16:20:41.940Z,28.10
2022-11-24T16:23:45.644Z,28.50
2022-11-24T16:26:48.277Z,30.05
2022-11-24T16:29:51.819Z,30.77
2022-11-24T16:32:54.990Z,34.03
2022-11-24T16:35:57.804Z,35.73
2022-11-24T16:39:00.552Z,29.60
2022-11-24T16:42:04.368Z,29.02
2022-11-24T16:45:07.541Z,28.48
2022-11-24T16:48:10.404Z,34.50
2022-11-24T16:51:13.649Z,33.50
2022-11-24T16:54:16.736Z,26.85
2022-11-24T16:57:19.426Z,29.15
2022-11-24T17:00:22.661Z,33.83
2022-11-24T17:03:25.536Z,29.87
2022-11-24T17:06:28.938Z,23.63
2022-11-24T17:09:33.866Z,28.23
2022-11-24T17:12:41.009Z,28.55
2022-11-24T17:15:48.398Z,28.45
2022-11-24T17:18:54.501Z,25.73
2022-11-24T17:21:57.241Z,26.53
2022-11-24T17:25:00.084Z,29.58
2022-11-24T17:28:02.716Z,26.48
2022-11-24T17:31:07.287Z,32.60
2022-11-24T17:34:10.810Z,27.37
2022-11-24T17:37:13.807Z,27.97
2022-11-24T17:40:34.369Z,28.77
2022-11-24T17:43:37.575Z,29.33
2022-11-24T17:46:40.758Z,30.40
2022-11-24T17:49:43.891Z,26.75
2022-11-24T17:52:47.090Z,36.70
2022-11-24T17:55:50.080Z,29.87
2022-11-24T17:59:00.179Z,24.17
2022-11-24T18:02:03.358Z,30.50
2022-11-24T18:05:06.883Z,27.08
2022-11-24T18:08:09.601Z,35.13
2022-11-24T18:11:23.627Z,29.80
2022-11-24T18:14:28.605Z,28.10
2022-11-24T18:17:31.583Z,29.90
2022-11-24T18:20:34.444Z,30.65
2022-11-24T18:23:37.888Z,33.30
2022-11-24T18:26:42.217Z,33.65
2022-11-24T18:29:46.396Z,29.48
2022-11-24T18:32:49.193Z,28.92
2022-11-24T18:36:00.058Z,28.38
2022-11-24T18:39:07.975Z,29.00
2022-11-24T18:42:11.240Z,34.65
2022-11-24T18:45:14.043Z,25.55
2022-11-24T18:48:17.271Z,32.42
2022-11-24T18:51:19.733Z,27.70
2022-11-24T18:54:22.509Z,31.53
2022-11-24T18:57:25.278Z,36.40
2022-11-24T19:00:28.763Z,37.28
2022-11-24T19:03:31.481Z,52.97
2022-11-24T19:06:36.879Z,40.58
2022-11-24T19:09:39.727Z,47.50
2022-11-24T19:12:44.841Z,56.33
2022-11-24T19:15:48.560Z,49.75
2022-11-24T19:18:54.359Z,34.88
2022-11-24T19:21:57.128Z,44.42
2022-11-24T19:25:00.339Z,27.70
2022-11-24T19:28:03.140Z,36.05
2022-11-24T19:31:08.841Z,38.33
2022-11-24T19:34:11.812Z,33.53
2022-11-24T19:37:15.091Z,34.63
2022-11-24T19:40:18.578Z,45.33
2022-11-24T19:43:21.811Z,48.10
2022-11-24T19:46:27.216Z,55.05
2022-11-24T19:49:32.454Z,46.63
2022-11-24T19:52:35.598Z,36.78
2022-11-24T19:55:38.708Z,35.20
2022-11-24T19:58:42.225Z,35.08
2022-11-24T20:01:45.267Z,36.55
2022-11-24T20:04:48.462Z,36.08
2022-11-24T20:07:51.445Z,39.90
2022-11-24T20:10:55.034Z,43.60
2022-11-24T20:13:57.876Z,37.97
2022-11-24T20:17:01.097Z,32.97
2022-11-24T20:20:04.504Z,43.30
2022-11-24T20:23:07.817Z,38.17
2022-11-24T20:26:16.328Z,38.90
2022-11-24T20:29:20.281Z,36.45
2022-11-24T20:32:23.166Z,31.30
2022-11-24T20:35:26.290Z,35.35
2022-11-24T20:38:29.751Z,38.08
2022-11-24T20:41:34.752Z,37.10
2022-11-24T20:44:37.751Z,40.35
2022-11-24T20:47:40.957Z,35.83
2022-11-24T20:50:48.302Z,35.28
2022-11-24T20:53:56.858Z,30.88
2022-11-24T20:56:59.738Z,33.77
2022-11-24T21:00:03.219Z,32.67
2022-11-24T21:03:07.135Z,32.67
2022-11-24T21:06:10.976Z,30.67
2022-11-24T21:09:13.735Z,34.50
2022-11-24T21:12:17.417Z,35.00
2022-11-24T21:15:20.014Z,33.40
2022-11-24T21:18:23.829Z,32.33
2022-11-24T21:21:33.381Z,36.45
2022-11-24T21:24:36.674Z,32.58
2022-11-24T21:27:39.634Z,30.37
2022-11-24T21:30:42.649Z,33.63
2022-11-24T21:33:50.349Z,34.83
2022-11-24T21:36:53.218Z,29.52
2022-11-24T21:39:55.669Z,33.42
2022-11-24T21:42:59.569Z,37.97
2022-11-24T21:46:03.768Z,41.50
2022-11-24T21:49:06.736Z,40.47
2022-11-24T21:52:09.305Z,35.53
2022-11-24T21:55:12.278Z,36.38
2022-11-24T21:58:15.063Z,36.83
2022-11-24T22:01:19.613Z,40.38
2022-11-24T22:04:22.751Z,32.13
2022-11-24T22:07:25.331Z,33.58
2022-11-24T22:10:29.616Z,31.45
2022-11-24T22:13:32.228Z,33.57
2022-11-24T22:16:35.651Z,34.33
2022-11-24T22:19:38.234Z,38.83
2022-11-24T22:22:41.174Z,38.67
2022-11-24T22:25:43.781Z,36.67
2022-11-24T22:28:49.943Z,32.53
2022-11-24T22:31:54.327Z,40.12
2022-11-24T22:34:57.336Z,30.62
2022-11-24T22:37:59.952Z,39.40
2022-11-24T22:41:25.224Z,36.90
2022-11-24T22:44:28.612Z,33.03
2022-11-24T22:47:31.517Z,36.97
2022-11-24T22:50:36.824Z,40.50
2022-11-24T22:53:40.373Z,36.78
2022-11-24T22:56:43.123Z,38.28
2022-11-24T22:59:46.372Z,36.30
2022-11-24T23:02:48.986Z,33.95
2022-11-24T23:05:51.911Z,36.75
2022-11-24T23:08:55.175Z,40.55
2022-11-24T23:11:58.017Z,37.42
2022-11-24T23:15:00.668Z,41.33
2022-11-24T23:18:03.555Z,32.60
2022-11-24T23:21:11.189Z,39.17
2022-11-24T23:24:14.037Z,36.15
2022-11-24T23:27:16.515Z,43.38
2022-11-24T23:30:19.764Z,35.73
2022-11-24T23:33:22.278Z,36.63
2022-11-24T23:36:25.644Z,39.28
2022-11-24T23:39:28.630Z,39.90
2022-11-24T23:42:31.522Z,29.83
2022-11-24T23:45:34.008Z,32.17
2022-11-24T23:48:37.799Z,35.20
2022-11-24T23:51:42.096Z,32.75
2022-11-24T23:54:45.431Z,32.88
2022-11-24T23:57:47.957Z,34.17
